Time;durP1;ratioP1;P1;durP2;ratioP2;P2;SDS_P1;SDS_P2;PMS_P1;PMS_P2;Temp;Humidity;BMP_temperature;BMP_pressure;BME280_temperature;BME280_humidity;BME280_pressure;Samples;Min_cycle;Max_cycle;Signal;HPM_P1;HPM_P2
2023/02/12 00:01:02;;;;;;;10.73;6.68;;;;;;;8.49;66.67;102298.78;4981911;28;20081;-48
2023/02/12 00:03:28;;;;;;;12.32;6.70;;;;;;;8.49;66.56;102295.34;4980736;28;20046;-48
2023/02/12 00:05:59;;;;;;;8.52;6.38;;;;;;;8.48;67.11;102297.03;4984707;28;20058;-48
2023/02/12 00:08:26;;;;;;;11.80;6.60;;;;;;;8.49;66.52;102296.19;4983431;28;20050;-48
2023/02/12 00:10:53;;;;;;;10.95;6.82;;;;;;;8.49;67.09;102298.78;4983622;28;20085;-50
2023/02/12 00:13:19;;;;;;;11.13;6.20;;;;;;;8.49;66.37;102288.44;4984380;28;20081;-48
2023/02/12 00:15:46;;;;;;;9.13;5.95;;;;;;;8.48;67.07;102289.28;4984178;28;20122;-50
2023/02/12 00:18:12;;;;;;;10.73;7.40;;;;;;;8.47;66.97;102290.09;4981773;28;20086;-48
2023/02/12 00:20:39;;;;;;;10.10;6.03;;;;;;;8.47;67.11;102295.25;4985616;28;20050;-48
2023/02/12 00:23:06;;;;;;;11.38;6.70;;;;;;;8.46;66.21;102296.09;4981870;28;20137;-49
2023/02/12 00:25:33;;;;;;;13.32;7.45;;;;;;;8.46;66.95;102290.94;4983305;28;20105;-47
2023/02/12 00:28:00;;;;;;;11.68;7.18;;;;;;;8.45;67.12;102299.47;4979428;28;20096;-49
2023/02/12 00:30:26;;;;;;;13.07;7.10;;;;;;;8.46;66.74;102297.78;4981694;28;20514;-47
2023/02/12 00:32:53;;;;;;;10.75;6.80;;;;;;;8.45;66.57;102296.03;4982388;28;20053;-47
2023/02/12 00:35:20;;;;;;;10.63;6.15;;;;;;;8.43;66.95;102293.38;4982778;28;20192;-49
2023/02/12 00:37:46;;;;;;;9.23;5.75;;;;;;;8.42;67.32;102290.72;4980547;28;20046;-47
2023/02/12 00:40:13;;;;;;;11.65;6.35;;;;;;;8.40;66.95;102285.50;4981284;28;20141;-48
2023/02/12 00:42:39;;;;;;;8.52;6.15;;;;;;;8.39;67.21;102288.91;4982942;28;20046;-48
2023/02/12 00:45:06;;;;;;;11.18;6.65;;;;;;;8.38;67.21;102289.72;4982152;28;20340;-51
2023/02/12 00:47:33;;;;;;;11.50;6.82;;;;;;;8.36;66.88;102288.75;4981708;28;20046;-49
2023/02/12 00:49:59;;;;;;;10.25;4.70;;;;;;;8.37;66.90;102287.94;4982261;28;20447;-47
2023/02/12 00:52:26;;;;;;;11.70;8.00;;;;;;;8.35;66.37;102290.44;4982617;28;20046;-47
2023/02/12 00:54:53;;;;;;;11.48;6.75;;;;;;;8.35;67.22;102305.94;4985251;28;20042;-48
2023/02/12 00:57:19;;;;;;;10.75;6.63;;;;;;;8.32;66.88;102310.09;4982091;28;20070;-46
2023/02/12 00:59:46;;;;;;;14.05;5.53;;;;;;;8.30;66.93;102298.81;4977647;28;20518;-47
2023/02/12 01:02:13;;;;;;;9.95;4.97;;;;;;;8.31;66.92;102298.03;4995240;28;20442;-50
2023/02/12 01:04:40;;;;;;;9.63;6.50;;;;;;;8.30;67.39;102297.13;4980311;28;20050;-48
2023/02/12 01:07:06;;;;;;;10.85;6.50;;;;;;;8.30;66.95;102302.28;4979067;28;20413;-47
2023/02/12 01:09:33;;;;;;;12.95;6.43;;;;;;;8.28;66.90;102308.22;4977681;28;20051;-47
2023/02/12 01:11:59;;;;;;;10.10;6.80;;;;;;;8.26;66.89;102315.00;4981398;28;20156;-48
2023/02/12 01:14:26;;;;;;;12.70;7.88;;;;;;;8.26;67.33;102310.72;4980983;28;20073;-47
2023/02/12 01:16:53;;;;;;;10.98;7.07;;;;;;;8.25;67.63;102314.13;4981754;28;20101;-48
2023/02/12 01:19:19;;;;;;;10.52;6.32;;;;;;;8.25;67.56;102310.66;4979800;28;20042;-48
2023/02/12 01:21:46;;;;;;;11.77;7.28;;;;;;;8.22;67.86;102314.88;4986085;28;20494;-48
2023/02/12 01:24:12;;;;;;;10.55;6.88;;;;;;;8.22;67.64;102314.88;4986447;28;20047;-49
2023/02/12 01:26:39;;;;;;;13.40;7.75;;;;;;;8.21;67.00;102313.09;4987787;28;20482;-48
2023/02/12 01:29:06;;;;;;;13.98;6.43;;;;;;;8.22;67.49;102317.47;4988429;28;20047;-47
2023/02/12 01:31:37;;;;;;;10.43;6.85;;;;;;;8.22;67.69;102314.88;4984811;28;20070;-47
2023/02/12 01:34:06;;;;;;;11.82;6.65;;;;;;;8.21;67.08;102302.75;4993358;28;20133;-49
2023/02/12 01:36:33;;;;;;;11.95;6.97;;;;;;;8.22;66.87;102298.50;4989933;28;20047;-50
2023/02/12 01:39:01;;;;;;;10.50;5.63;;;;;;;8.23;66.91;102301.16;4990419;28;20086;-50
2023/02/12 01:41:33;;;;;;;13.32;6.90;;;;;;;8.26;67.72;102309.81;4987506;28;20038;-48
2023/02/12 01:46:55;;;;;;;11.43;4.75;;;;;;;8.25;67.26;102300.31;5018426;27;20580;-47
2023/02/12 01:49:25;;;;;;;10.55;5.00;;;;;;;8.23;67.81;102300.25;5021339;28;20412;-47
2023/02/12 01:51:59;;;;;;;10.40;5.10;;;;;;;8.21;67.86;102302.75;5022678;28;20150;-48
2023/02/12 01:54:27;;;;;;;10.15;4.72;;;;;;;8.20;67.51;102289.78;5013564;28;20077;-47
2023/02/12 01:56:54;;;;;;;9.85;5.20;;;;;;;8.19;67.95;102291.50;5016320;28;20340;-48
2023/02/12 01:59:22;;;;;;;10.68;5.00;;;;;;;8.19;68.04;102283.75;5014672;28;20497;-48
2023/02/12 02:01:49;;;;;;;10.32;5.05;;;;;;;8.19;68.20;102288.03;5013149;28;20065;-48
2023/02/12 02:04:21;;;;;;;11.85;5.72;;;;;;;8.18;67.41;102281.97;5012954;28;20144;-47
2023/02/12 02:07:05;;;;;;;9.73;4.63;;;;;;;8.13;67.86;102283.47;4990462;28;20054;-47
2023/02/12 02:09:35;;;;;;;11.15;4.88;;;;;;;8.15;67.96;102281.88;4991985;28;20045;-48
2023/02/12 02:14:53;;;;;;;10.30;5.72;;;;;;;8.13;66.90;102286.06;4988658;28;20553;-48
2023/02/12 02:26:42;;;;;;;11.98;6.43;;;;;;;8.04;66.94;102278.78;5037259;28;20915;-48
2023/02/12 02:31:58;;;;;;;11.45;5.10;;;;;;;8.05;67.24;102274.53;4997031;27;20634;-47
2023/02/12 02:34:29;;;;;;;;;;;;;;;7.94;67.20;102282.66;4979577;28;20061;-50
2023/02/12 02:40:02;;;;;;;14.82;8.55;;;;;;;8.44;67.45;102279.63;5012032;28;20700;-47
2023/02/12 02:48:05;;;;;;;11.60;5.93;;;;;;;8.08;68.23;102282.41;5042454;27;20404;-48
2023/02/12 02:50:37;;;;;;;10.18;5.70;;;;;;;8.07;67.79;102275.50;5015218;28;20091;-50
2023/02/12 02:53:09;;;;;;;14.32;5.72;;;;;;;8.06;68.25;102277.19;5015012;28;20119;-48
2023/02/12 02:55:41;;;;;;;15.48;6.40;;;;;;;8.06;68.50;102284.03;5012698;28;20076;-48
2023/02/12 02:58:13;;;;;;;17.17;7.43;;;;;;;8.05;67.64;102290.91;5016041;28;20147;-48
2023/02/12 03:00:46;;;;;;;14.00;6.55;;;;;;;8.04;68.41;102289.13;5009988;28;20046;-48
2023/02/12 03:05:53;;;;;;;12.63;8.40;;;;;;;8.03;68.45;102286.47;5051990;28;20382;-48
2023/02/12 03:08:28;;;;;;;13.48;6.22;;;;;;;8.02;67.32;102284.72;5058674;28;20381;-49
2023/02/12 03:11:00;;;;;;;15.63;7.82;;;;;;;8.01;68.13;102283.84;5052385;28;20139;-48
2023/02/12 03:13:40;;;;;;;14.52;7.88;;;;;;;7.99;68.03;102280.31;5052880;28;20096;-47
2023/02/12 03:16:14;;;;;;;14.30;7.90;;;;;;;7.99;67.66;102277.72;5054871;28;20072;-48
2023/02/12 03:18:57;;;;;;;14.07;7.75;;;;;;;7.97;67.51;102269.91;5055589;28;20045;-48
2023/02/12 03:21:29;;;;;;;13.30;7.68;;;;;;;7.98;68.16;102274.25;5059845;28;20119;-48
2023/02/12 03:24:03;;;;;;;14.13;8.15;;;;;;;7.98;67.78;102276.81;5057817;28;20048;-47
2023/02/12 03:26:39;;;;;;;14.02;7.47;;;;;;;7.96;67.21;102265.56;5058234;28;20098;-48
2023/02/12 03:29:05;;;;;;;17.05;7.32;;;;;;;7.97;67.66;102272.50;5058058;28;20048;-50
2023/02/12 03:31:54;;;;;;;12.77;7.10;;;;;;;7.94;67.75;102272.34;5060564;28;20048;-47
2023/02/12 03:45:21;;;;;;;15.20;6.40;;;;;;;8.05;67.42;102271.94;5025317;27;20733;-47
2023/02/12 03:47:57;;;;;;;12.57;6.20;;;;;;;8.04;67.95;102288.25;5000464;28;20123;-50
2023/02/12 03:50:38;;;;;;;12.48;6.00;;;;;;;8.00;67.60;102288.94;4995541;28;20690;-50
2023/02/12 03:53:05;;;;;;;12.45;6.03;;;;;;;7.98;67.96;102284.56;5012270;28;20093;-49
2023/02/12 03:55:37;;;;;;;13.45;5.78;;;;;;;7.96;67.38;102281.06;4993677;28;20129;-49
2023/02/12 03:58:09;;;;;;;11.88;5.18;;;;;;;7.96;68.24;102288.81;4997187;28;20049;-50
2023/02/12 04:00:37;;;;;;;12.95;5.75;;;;;;;7.95;67.72;102283.56;4995696;28;20042;-50
2023/02/12 04:03:05;;;;;;;11.75;5.88;;;;;;;7.94;67.45;102287.84;4994996;28;20141;-47
2023/02/12 04:05:32;;;;;;;12.40;5.50;;;;;;;7.94;68.55;102287.84;4994253;28;20080;-51
2023/02/12 04:08:01;;;;;;;13.77;5.63;;;;;;;7.93;68.66;102283.50;4997278;28;20084;-50
2023/02/12 04:10:47;;;;;;;11.90;5.95;;;;;;;7.89;67.68;102286.75;4995369;28;21497;-50
2023/02/12 04:13:41;;;;;;;14.63;5.95;;;;;;;7.87;68.52;102288.38;4996916;28;20042;-49
2023/02/12 04:18:48;;;;;;;10.20;5.70;;;;;;;7.90;67.64;102293.69;5067098;27;20907;-48
2023/02/12 04:27:06;;;;;;;14.88;8.38;;;;;;;8.25;67.65;102287.41;5037704;27;20430;-47
2023/02/12 04:32:18;;;;;;;13.55;8.05;;;;;;;7.96;67.89;102293.97;5038817;28;20408;-48
2023/02/12 04:37:31;;;;;;;13.68;6.53;;;;;;;7.92;68.40;102299.81;5004138;28;20409;-49
2023/02/12 04:40:01;;;;;;;12.68;6.60;;;;;;;7.91;67.62;102295.44;4976140;28;20104;-47
2023/02/12 04:42:28;;;;;;;12.52;6.10;;;;;;;7.90;68.06;102296.25;4981486;28;20584;-50
2023/02/12 04:44:54;;;;;;;13.52;6.13;;;;;;;7.89;68.45;102297.06;4979539;28;20133;-49
2023/02/12 04:47:21;;;;;;;12.23;5.90;;;;;;;7.88;68.79;102297.91;4979141;28;20078;-47
2023/02/12 04:49:47;;;;;;;14.95;6.40;;;;;;;7.89;67.55;102289.34;4982344;28;20077;-48
2023/02/12 04:52:14;;;;;;;11.95;5.53;;;;;;;7.88;67.81;102303.06;4978950;28;20054;-48
2023/02/12 04:54:40;;;;;;;14.80;6.78;;;;;;;7.87;67.79;102293.53;4979418;28;20065;-48
2023/02/12 04:57:08;;;;;;;14.88;6.30;;;;;;;7.86;67.58;102299.50;4979468;28;20297;-49
2023/02/12 04:59:34;;;;;;;13.95;7.03;;;;;;;7.85;67.58;102295.19;4983127;28;20054;-48
2023/02/12 05:02:01;;;;;;;12.48;7.07;;;;;;;7.86;68.87;102294.34;4984286;28;20070;-48
2023/02/12 05:04:28;;;;;;;12.25;5.43;;;;;;;7.84;67.63;102288.25;4982717;28;20042;-48
2023/02/12 05:06:54;;;;;;;11.77;6.32;;;;;;;7.84;67.96;102296.00;4980846;28;20137;-47
2023/02/12 05:09:21;;;;;;;12.30;6.05;;;;;;;7.83;68.11;102289.06;4980020;28;20066;-47
2023/02/12 05:11:47;;;;;;;13.50;6.30;;;;;;;7.82;68.22;102295.03;4977426;28;20470;-49
2023/02/12 05:14:14;;;;;;;13.95;6.45;;;;;;;7.81;67.53;102285.53;4978991;28;20090;-48
2023/02/12 05:16:41;;;;;;;12.80;5.82;;;;;;;7.79;68.07;102287.16;4981373;28;20472;-47
2023/02/12 05:19:08;;;;;;;13.48;6.95;;;;;;;7.79;68.66;102284.56;4978735;28;20050;-49
2023/02/12 05:21:36;;;;;;;12.27;5.57;;;;;;;7.79;68.05;102282.00;4980030;28;20176;-48
2023/02/12 05:24:03;;;;;;;13.10;5.20;;;;;;;7.78;68.23;102281.13;4983780;28;20359;-48
2023/02/12 05:26:30;;;;;;;12.45;5.95;;;;;;;7.78;69.10;102291.44;4977816;28;20073;-47
2023/02/12 05:28:56;;;;;;;10.85;5.05;;;;;;;7.77;67.85;102291.38;4982027;28;20074;-48
2023/02/12 05:31:23;;;;;;;10.32;5.10;;;;;;;7.76;67.88;102289.59;4975475;28;20545;-47
2023/02/12 05:33:50;;;;;;;14.13;5.65;;;;;;;7.76;68.09;102294.75;4980481;28;20043;-48
2023/02/12 05:36:20;;;;;;;11.90;5.75;;;;;;;7.74;68.21;102286.06;4985251;28;20494;-48
2023/02/12 05:38:47;;;;;;;13.45;6.32;;;;;;;7.74;67.98;102288.66;4980987;28;20553;-48
2023/02/12 05:41:16;;;;;;;10.00;5.07;;;;;;;7.72;68.37;102286.91;4977153;28;20089;-47
2023/02/12 05:43:43;;;;;;;12.63;5.93;;;;;;;7.72;68.52;102286.00;4976905;28;20051;-48
2023/02/12 05:46:13;;;;;;;13.32;5.00;;;;;;;7.71;68.59;102285.09;4975489;28;20050;-47
2023/02/12 05:48:40;;;;;;;11.15;5.57;;;;;;;7.71;68.10;102292.84;4961792;28;20050;-47
2023/02/12 05:51:13;;;;;;;15.27;5.07;;;;;;;7.71;68.35;102284.25;4965693;28;20081;-48
2023/02/12 05:53:40;;;;;;;10.93;5.13;;;;;;;7.70;67.48;102282.47;4963435;28;20354;-48
2023/02/12 05:58:51;;;;;;;13.60;7.32;;;;;;;7.70;67.70;102278.19;5016575;27;20406;-48
2023/02/12 06:01:22;;;;;;;13.52;7.53;;;;;;;7.70;68.95;102280.75;5016513;28;20119;-47
2023/02/12 06:03:49;;;;;;;11.82;6.90;;;;;;;7.68;68.62;102285.00;5014807;28;20575;-47
2023/02/12 06:06:16;;;;;;;15.85;8.40;;;;;;;7.68;68.76;102277.25;5013726;28;20050;-50
2023/02/12 06:08:42;;;;;;;13.32;7.55;;;;;;;7.68;68.86;102278.94;5013980;28;20100;-47
2023/02/12 06:11:13;;;;;;;14.35;7.75;;;;;;;7.67;68.08;102283.19;5012198;28;20052;-47
2023/02/12 06:13:40;;;;;;;14.82;8.25;;;;;;;7.66;68.01;102288.28;5014948;28;20288;-47
2023/02/12 06:16:14;;;;;;;14.02;7.82;;;;;;;7.66;68.39;102283.13;5011991;28;20077;-46
2023/02/12 06:18:41;;;;;;;15.60;7.70;;;;;;;7.63;68.64;102273.56;5019585;28;20049;-48
2023/02/12 06:21:08;;;;;;;13.65;6.75;;;;;;;7.63;69.22;102281.28;5017783;28;20356;-46
2023/02/12 06:23:34;;;;;;;12.80;6.85;;;;;;;7.62;68.68;102279.53;5013134;28;20072;-46
2023/02/12 06:26:01;;;;;;;12.75;7.40;;;;;;;7.61;68.72;102271.72;5017181;28;20081;-46
2023/02/12 06:28:27;;;;;;;12.77;7.53;;;;;;;7.60;68.85;102273.41;5017251;28;20139;-46
2023/02/12 06:30:54;;;;;;;14.70;7.90;;;;;;;7.61;67.92;102275.19;5014727;28;20048;-47
2023/02/12 06:33:20;;;;;;;12.27;7.05;;;;;;;7.61;69.19;102271.72;5016509;28;20236;-47
2023/02/12 06:35:47;;;;;;;10.93;4.97;;;;;;;7.59;68.34;102271.66;5019902;28;20448;-47
2023/02/12 06:38:14;;;;;;;14.13;7.38;;;;;;;7.59;69.04;102269.06;5015017;28;20092;-47
2023/02/12 06:40:40;;;;;;;13.05;7.30;;;;;;;7.58;69.35;102267.31;5010429;28;20084;-48
2023/02/12 06:43:07;;;;;;;16.10;8.57;;;;;;;7.58;68.31;102272.47;5019905;28;20084;-46
2023/02/12 06:45:34;;;;;;;13.45;7.60;;;;;;;7.58;69.21;102267.31;5022695;28;20451;-47
2023/02/12 06:48:01;;;;;;;15.32;7.70;;;;;;;7.57;68.47;102265.56;5019986;28;20057;-46
2023/02/12 06:50:28;;;;;;;16.00;6.38;;;;;;;7.58;69.06;102275.06;5018448;28;20441;-47
2023/02/12 06:52:56;;;;;;;15.52;7.70;;;;;;;7.55;67.75;102264.59;5017070;28;20045;-48
2023/02/12 06:55:23;;;;;;;15.88;7.80;;;;;;;7.53;68.68;102263.66;5020421;28;20045;-48
2023/02/12 06:57:50;;;;;;;11.80;5.20;;;;;;;7.53;68.86;102268.81;5018854;28;20460;-46
2023/02/12 07:00:17;;;;;;;18.98;8.13;;;;;;;7.52;68.68;102269.59;5018642;28;20708;-48
2023/02/12 07:02:43;;;;;;;16.83;8.27;;;;;;;7.50;68.62;102266.09;5019946;28;20216;-47
2023/02/12 07:05:10;;;;;;;18.35;8.43;;;;;;;7.45;69.21;102264.19;5020509;28;20077;-49
2023/02/12 07:07:37;;;;;;;16.52;8.70;;;;;;;7.45;68.71;102271.94;5014840;28;20107;-46
2023/02/12 07:10:03;;;;;;;14.30;7.50;;;;;;;7.42;69.88;102276.94;5005749;28;20085;-47
2023/02/12 07:12:32;;;;;;;15.43;7.75;;;;;;;7.44;69.02;102280.44;5005221;28;20323;-49
2023/02/12 07:14:58;;;;;;;15.60;8.18;;;;;;;7.42;69.83;102282.09;5001644;28;20101;-47
2023/02/12 07:17:25;;;;;;;13.75;7.55;;;;;;;7.42;69.16;102289.81;4997706;28;21413;-48
2023/02/12 07:19:52;;;;;;;16.02;8.50;;;;;;;7.41;68.85;102280.34;5004854;28;20405;-49
2023/02/12 07:22:19;;;;;;;17.85;8.30;;;;;;;7.41;69.03;102290.66;5001428;28;20127;-48
2023/02/12 07:24:46;;;;;;;11.95;6.78;;;;;;;7.42;69.29;102297.56;4996213;28;20338;-48
2023/02/12 07:27:13;;;;;;;14.85;8.32;;;;;;;7.43;68.35;102294.16;4992443;28;20488;-47
2023/02/12 07:29:40;;;;;;;16.42;7.95;;;;;;;7.40;68.70;102296.59;4992517;28;20521;-49
2023/02/12 07:32:06;;;;;;;17.63;8.70;;;;;;;7.41;69.02;102288.06;4994485;28;20046;-46
2023/02/12 07:34:33;;;;;;;17.75;8.93;;;;;;;7.42;68.27;102302.72;4998463;28;20042;-46
2023/02/12 07:36:59;;;;;;;13.95;7.28;;;;;;;7.42;68.71;102310.44;5002283;28;20074;-48
2023/02/12 07:39:26;;;;;;;15.57;7.70;;;;;;;7.42;69.74;102313.03;4989565;28;20100;-47
2023/02/12 07:41:54;;;;;;;18.38;8.45;;;;;;;7.42;69.27;102305.28;4998671;28;20093;-49
2023/02/12 07:44:21;;;;;;;16.63;8.40;;;;;;;7.43;68.57;102309.63;4993776;28;20115;-47
2023/02/12 07:46:48;;;;;;;18.85;8.38;;;;;;;7.43;69.24;102314.78;4992202;28;20136;-47
2023/02/12 07:49:19;;;;;;;15.75;7.80;;;;;;;7.42;69.70;102307.88;4993315;28;20054;-46
2023/02/12 07:51:47;;;;;;;14.60;7.75;;;;;;;7.43;68.47;102312.22;4998103;28;20345;-47
2023/02/12 07:54:14;;;;;;;15.45;7.68;;;;;;;7.44;69.59;102313.09;4994821;28;20370;-46
2023/02/12 07:56:42;;;;;;;14.15;7.93;;;;;;;7.44;68.69;102313.97;4993953;28;20057;-46
2023/02/12 07:59:12;;;;;;;13.75;8.15;;;;;;;7.44;69.53;102311.38;4996163;28;20049;-49
2023/02/12 08:01:40;;;;;;;;;;;;;;;7.36;69.55;102317.88;4994822;28;20050;-46
2023/02/12 08:04:11;;;;;;;15.35;9.50;;;;;;;7.44;68.23;102316.53;4994855;28;19976;-46
2023/02/12 08:06:43;;;;;;;13.60;7.80;;;;;;;7.46;68.93;102314.94;4995760;28;20049;-47
2023/02/12 08:09:12;;;;;;;15.50;7.60;;;;;;;7.48;69.33;102316.69;4991597;28;20085;-47
2023/02/12 08:11:41;;;;;;;14.90;7.78;;;;;;;7.51;68.56;102319.44;4993759;28;20160;-46
2023/02/12 08:14:10;;;;;;;14.35;8.23;;;;;;;7.52;68.33;102313.44;4995796;28;20042;-47
2023/02/12 08:16:39;;;;;;;15.20;7.60;;;;;;;7.52;69.22;102318.59;4994381;28;20172;-46
2023/02/12 08:19:07;;;;;;;15.98;7.70;;;;;;;7.51;69.64;102317.75;4993934;28;20058;-47
2023/02/12 08:21:47;;;;;;;13.80;8.23;;;;;;;7.52;69.37;102316.03;4993081;28;20052;-47
2023/02/12 08:24:14;;;;;;;16.63;8.77;;;;;;;7.54;69.28;102327.31;4998133;28;20092;-48
2023/02/12 08:26:40;;;;;;;16.88;7.32;;;;;;;7.54;69.11;102317.00;4989572;28;20081;-46
2023/02/12 08:29:10;;;;;;;17.13;7.65;;;;;;;7.58;68.91;102324.06;4999663;28;20069;-46
2023/02/12 08:31:40;;;;;;;15.13;5.78;;;;;;;7.56;69.26;102328.25;4994509;28;20544;-47
2023/02/12 08:34:16;;;;;;;14.05;6.95;;;;;;;7.57;68.92;102318.00;5004726;28;20360;-48
2023/02/12 08:36:43;;;;;;;17.02;7.20;;;;;;;7.60;68.76;102327.56;4990448;28;20748;-46
2023/02/12 08:39:10;;;;;;;15.32;8.23;;;;;;;7.63;69.00;102321.72;4992464;28;20457;-46
2023/02/12 08:41:37;;;;;;;16.98;8.43;;;;;;;7.62;68.76;102330.22;4995297;28;20100;-47
2023/02/12 08:44:04;;;;;;;17.10;8.35;;;;;;;7.67;68.70;102331.34;4994734;28;20656;-47
2023/02/12 08:46:33;;;;;;;15.15;7.65;;;;;;;7.67;69.53;102329.63;4993182;28;20054;-47
2023/02/12 08:49:03;;;;;;;15.70;7.68;;;;;;;7.70;69.07;102329.78;4992441;28;20046;-48
2023/02/12 08:51:34;;;;;;;12.98;6.75;;;;;;;7.74;69.75;102330.81;4989932;28;20333;-48
2023/02/12 08:54:04;;;;;;;16.58;7.88;;;;;;;7.76;68.90;102331.75;4997983;28;20045;-47
2023/02/12 08:56:32;;;;;;;15.32;8.48;;;;;;;7.78;68.68;102326.66;4991755;28;20046;-48
2023/02/12 08:59:01;;;;;;;15.32;8.00;;;;;;;7.80;69.18;102331.09;4995017;28;20073;-48
2023/02/12 09:01:29;;;;;;;15.10;7.43;;;;;;;7.81;68.58;102331.97;4992687;28;20056;-47
2023/02/12 09:03:56;;;;;;;16.20;8.13;;;;;;;7.81;68.86;102331.97;4990895;28;20144;-46
2023/02/12 09:06:24;;;;;;;16.98;9.65;;;;;;;7.84;69.55;102332.13;4991365;28;20103;-47
2023/02/12 09:08:52;;;;;;;20.10;7.80;;;;;;;7.89;68.96;102328.03;4993062;28;20569;-45
2023/02/12 09:11:25;;;;;;;15.32;7.95;;;;;;;7.91;69.40;102326.41;4992094;28;20577;-47
2023/02/12 09:13:52;;;;;;;16.92;7.50;;;;;;;7.94;68.55;102326.53;4996028;28;20444;-46
2023/02/12 09:16:18;;;;;;;17.15;7.57;;;;;;;7.95;68.63;102320.59;4996993;28;20073;-46
2023/02/12 09:18:45;;;;;;;15.35;7.97;;;;;;;7.97;69.51;102320.63;4990297;28;20050;-47
2023/02/12 09:21:14;;;;;;;16.40;7.75;;;;;;;7.98;69.20;102322.41;4996746;28;20046;-48
2023/02/12 09:23:43;;;;;;;14.93;8.18;;;;;;;7.98;68.73;102325.88;4994347;28;20097;-47
2023/02/12 09:26:12;;;;;;;14.45;7.07;;;;;;;7.98;68.93;102320.69;4995090;28;20375;-49
2023/02/12 09:28:39;;;;;;;15.52;8.05;;;;;;;8.02;69.83;102316.56;4993389;28;20498;-47
2023/02/12 09:31:12;;;;;;;19.08;9.05;;;;;;;8.01;69.08;102316.50;5002877;28;20048;-49
2023/02/12 09:33:40;;;;;;;13.05;7.60;;;;;;;8.02;69.78;102320.84;5002904;28;20046;-49
2023/02/12 09:36:11;;;;;;;14.80;7.47;;;;;;;8.04;69.65;102325.25;5005488;28;20046;-49
2023/02/12 09:38:38;;;;;;;13.82;7.38;;;;;;;8.07;69.29;102311.63;5002787;28;20410;-49
2023/02/12 09:41:41;;;;;;;13.15;6.45;;;;;;;8.04;69.73;102319.22;4997173;28;20092;-47
2023/02/12 09:44:24;;;;;;;16.63;7.75;;;;;;;8.08;68.82;102318.53;4995522;28;20077;-48
2023/02/12 09:46:57;;;;;;;12.52;6.68;;;;;;;8.12;69.18;102317.88;4996522;28;20093;-48
2023/02/12 09:52:25;;;;;;;12.50;4.30;;;;;;;8.17;68.56;102321.53;5026160;27;20410;-46
2023/02/12 09:54:53;;;;;;;9.23;4.75;;;;;;;8.17;68.83;102316.34;5014964;28;20293;-48
2023/02/12 10:02:39;;;;;;;10.10;4.10;;;;;;;8.21;68.71;102313.09;5071565;27;20390;-46
2023/02/12 10:05:17;;;;;;;9.88;4.00;;;;;;;8.19;69.79;102311.25;5004515;28;20070;-49
2023/02/12 10:08:12;;;;;;;9.00;4.25;;;;;;;8.17;69.02;102311.19;4996326;28;20042;-46
2023/02/12 10:13:37;;;;;;;14.20;3.97;;;;;;;8.19;68.61;102314.75;5058247;27;20422;-47
2023/02/12 10:16:28;;;;;;;11.05;4.85;;;;;;;8.25;68.73;102315.81;5060650;28;20056;-47
2023/02/12 10:19:22;;;;;;;9.57;4.72;;;;;;;8.25;68.50;102313.22;5048356;28;20077;-48
2023/02/12 10:27:12;;;;;;;13.00;4.95;;;;;;;8.30;69.34;102316.88;5071465;27;20404;-48
2023/02/12 10:29:42;;;;;;;13.45;4.88;;;;;;;8.31;69.30;102323.84;5015930;28;20053;-49
2023/02/12 10:32:26;;;;;;;;;;;;;;;8.25;68.83;102320.97;5018535;28;20120;-48
2023/02/12 10:34:55;;;;;;;13.55;6.00;;;;;;;8.33;69.24;102319.59;5018284;28;20024;-49
2023/02/12 10:37:44;;;;;;;10.85;6.68;;;;;;;8.35;69.10;102321.44;5008018;28;20049;-47
2023/02/12 10:40:31;;;;;;;13.02;6.93;;;;;;;8.39;68.31;102322.47;5026691;28;20131;-48
2023/02/12 10:42:59;;;;;;;12.10;4.95;;;;;;;8.46;68.51;102321.03;5015954;28;20414;-49
2023/02/12 10:48:25;;;;;;;12.05;5.65;;;;;;;8.49;68.46;102319.44;5042796;28;20403;-50
2023/02/12 10:53:45;;;;;;;13.48;7.10;;;;;;;8.59;68.99;102319.88;5115343;27;20719;-48
2023/02/12 11:09:44;;;;;;;12.30;5.70;;;;;;;8.77;68.09;102329.19;5048683;27;20921;-47
2023/02/12 11:18:00;;;;;;;18.20;9.07;;;;;;;9.09;66.18;102321.91;5098296;27;20410;-48
2023/02/12 11:28:52;;;;;;;18.10;8.45;;;;;;;8.82;67.62;102322.53;5069833;27;20396;-49
2023/02/12 11:31:24;;;;;;;17.17;8.50;;;;;;;8.85;67.15;102307.16;5040241;28;20052;-49
2023/02/12 11:36:50;;;;;;;15.45;6.72;;;;;;;8.82;66.72;102307.03;5030714;27;21120;-50
2023/02/12 11:39:26;;;;;;;15.10;6.88;;;;;;;8.86;66.99;102308.94;4998687;28;20042;-48
2023/02/12 11:41:57;;;;;;;16.65;6.20;;;;;;;8.79;67.01;102302.63;4996910;28;20509;-47
2023/02/12 11:44:28;;;;;;;17.05;6.78;;;;;;;8.77;67.29;102300.78;5001503;28;20070;-48
2023/02/12 11:47:01;;;;;;;14.25;5.95;;;;;;;8.70;66.72;102297.06;5000144;28;20105;-48
2023/02/12 11:49:32;;;;;;;17.33;6.68;;;;;;;8.73;67.12;102298.09;4995869;28;20058;-49
2023/02/12 11:52:01;;;;;;;15.57;6.25;;;;;;;8.69;66.90;102295.31;5000784;28;20046;-49
2023/02/12 11:54:38;;;;;;;15.70;7.13;;;;;;;8.65;66.89;102304.63;4998720;28;20074;-49
2023/02/12 11:57:05;;;;;;;;;;;;;;;8.51;66.35;102305.72;4997374;28;20073;-49
2023/02/12 11:59:39;;;;;;;15.35;6.13;;;;;;;8.63;67.11;102306.28;5000124;28;19921;-50
2023/02/12 12:02:24;;;;;;;16.38;6.38;;;;;;;8.67;66.76;102308.16;4980515;28;20330;-50
2023/02/12 12:04:55;;;;;;;18.65;7.15;;;;;;;8.59;66.72;102310.44;4998488;28;20042;-48
2023/02/12 12:07:28;;;;;;;18.88;7.35;;;;;;;8.65;66.62;102308.91;5000576;28;20148;-50
2023/02/12 12:12:54;;;;;;;25.90;11.60;;;;;;;8.84;64.80;102297.63;5038679;27;20421;-49
2023/02/12 12:23:54;;;;;;;26.85;9.80;;;;;;;8.60;65.50;102281.19;5038724;28;20376;-51
2023/02/12 12:26:25;;;;;;;22.85;8.77;;;;;;;8.57;66.29;102278.47;5028871;28;20442;-48
2023/02/12 12:29:16;;;;;;;24.98;10.13;;;;;;;8.59;66.43;102273.38;4996893;28;20298;-47
2023/02/12 12:31:49;;;;;;;24.35;9.63;;;;;;;8.57;66.23;102269.84;4995494;28;20066;-52
2023/02/12 12:34:21;;;;;;;25.42;9.18;;;;;;;8.59;64.81;102275.97;4996643;28;20050;-48
2023/02/12 12:37:27;;;;;;;26.35;9.95;;;;;;;8.65;66.05;102272.75;4995137;28;20441;-50
2023/02/12 12:56:52;;;;;;;25.05;11.38;;;;;;;9.03;64.83;102251.84;5049686;27;20407;-48
2023/02/12 12:59:53;;;;;;;28.15;12.05;;;;;;;9.08;64.92;102258.06;5016606;28;20053;-49
2023/02/12 13:05:52;;;;;;;22.08;9.27;;;;;;;9.07;64.52;102230.47;5016042;27;20411;-46
2023/02/12 13:08:46;;;;;;;23.67;8.63;;;;;;;9.06;63.83;102239.03;4996861;28;20053;-47
2023/02/12 13:11:52;;;;;;;26.50;9.75;;;;;;;9.06;64.62;102236.47;5001361;28;20601;-45
2023/02/12 13:17:31;;;;;;;23.27;9.30;;;;;;;9.11;64.50;102232.34;5076027;27;20406;-45
2023/02/12 13:20:12;;;;;;;22.48;9.10;;;;;;;9.06;64.10;102226.13;5037154;28;20045;-46
2023/02/12 13:22:52;;;;;;;24.38;8.73;;;;;;;9.07;64.51;102221.00;5059361;28;20041;-45
2023/02/12 13:25:29;;;;;;;24.75;8.60;;;;;;;9.09;63.60;102224.53;5059631;28;20072;-46
2023/02/12 13:27:59;;;;;;;21.30;8.77;;;;;;;9.07;64.27;102214.94;5050155;28;20156;-45
2023/02/12 13:30:32;;;;;;;24.70;9.50;;;;;;;9.10;64.20;102215.97;5051808;28;20068;-45
2023/02/12 13:35:47;;;;;;;24.55;7.35;;;;;;;9.16;63.55;102220.50;5085448;27;20396;-45
2023/02/12 13:38:24;;;;;;;19.83;8.25;;;;;;;9.18;63.77;102213.66;5057494;28;20549;-46
2023/02/12 13:40:53;;;;;;;;;;;;;;;9.11;64.03;102209.97;5058651;28;20057;-46
2023/02/12 13:54:25;;;;;;;20.00;8.07;;;;;;;9.37;63.65;102207.50;5041791;28;20392;-45
2023/02/12 13:56:56;;;;;;;18.30;8.18;;;;;;;9.43;63.90;102208.53;5001093;28;20065;-46
2023/02/12 14:02:41;;;;;;;19.65;10.35;;;;;;;9.39;63.90;102203.25;5047050;27;20412;-45
2023/02/12 14:07:49;;;;;;;19.48;7.68;;;;;;;9.39;63.30;102194.59;5058365;27;20415;-46
2023/02/12 14:10:24;;;;;;;15.15;6.78;;;;;;;9.25;62.68;102200.16;5055260;28;20444;-46
2023/02/12 14:12:54;;;;;;;16.65;6.60;;;;;;;9.20;63.86;102196.50;5052367;28;20053;-45
2023/02/12 14:15:33;;;;;;;14.95;6.72;;;;;;;9.06;63.54;102188.25;5059074;28;20076;-45
2023/02/12 14:20:39;;;;;;;17.27;6.72;;;;;;;9.10;63.83;102189.22;5051794;27;20390;-47
2023/02/12 14:23:27;;;;;;;14.80;6.90;;;;;;;9.08;63.56;102183.09;5019331;28;20485;-45
2023/02/12 14:25:58;;;;;;;14.68;6.70;;;;;;;9.05;63.75;102185.59;5018023;28;20084;-46
2023/02/12 14:36:45;;;;;;;17.85;7.88;;;;;;;8.98;63.64;102171.53;5044396;27;20398;-46